createdAt,value
2018-05-11T00:00:17.027Z,12.12
2018-05-11T00:01:17.124Z,12.14
2018-05-11T00:05:28.823Z,12.14
2018-05-11T00:06:27.640Z,12.12
2018-05-11T00:07:31.824Z,12.09
2018-05-11T00:15:10.151Z,12.16
2018-05-11T00:15:44.107Z,12.10
2018-05-11T00:16:42.496Z,12.12
2018-05-11T00:17:52.237Z,12.10
2018-05-11T00:18:45.118Z,12.12
2018-05-11T00:19:42.639Z,12.05
2018-05-11T00:20:42.727Z,12.05
2018-05-11T00:27:10.903Z,12.17
2018-05-11T00:28:10.783Z,12.16
2018-05-11T00:35:36.752Z,12.13
2018-05-11T00:37:04.500Z,12.13
2018-05-11T01:08:35.250Z,12.07
2018-05-11T02:14:27.458Z,11.61
2018-05-11T02:15:27.646Z,11.61
2018-05-11T03:56:11.361Z,11.72
2018-05-11T03:57:08.697Z,11.61
2018-05-11T03:58:08.859Z,11.60
2018-05-11T03:59:09.454Z,11.58
2018-05-11T04:00:11.459Z,11.61
2018-05-11T04:01:08.887Z,11.60
2018-05-11T04:33:56.604Z,11.82
2018-05-11T04:34:38.404Z,11.78
2018-05-11T04:35:38.349Z,11.91
2018-05-11T04:36:38.419Z,11.85
2018-05-11T04:37:38.579Z,11.88
2018-05-11T04:38:38.493Z,11.82
2018-05-11T04:39:38.306Z,11.90
2018-05-11T04:40:38.474Z,11.85
2018-05-11T04:41:38.467Z,11.91
2018-05-11T04:42:38.527Z,12.02
2018-05-11T04:43:38.491Z,11.98
2018-05-11T04:44:38.259Z,11.98
2018-05-11T04:45:51.138Z,12.10
2018-05-11T04:46:38.227Z,12.05
2018-05-11T04:47:38.197Z,12.05
2018-05-11T04:48:40.250Z,12.02
2018-05-11T04:49:38.185Z,12.02
2018-05-11T04:50:38.172Z,12.07
2018-05-11T04:51:38.172Z,12.12
2018-05-11T04:52:38.135Z,12.14
2018-05-11T04:53:38.154Z,12.27
2018-05-11T04:54:38.105Z,12.17
2018-05-11T04:55:38.097Z,12.20
2018-05-11T04:56:38.080Z,12.17
2018-05-11T04:57:38.113Z,12.20
2018-05-11T04:58:38.051Z,12.21
2018-05-11T04:59:38.045Z,12.23
2018-05-11T05:00:38.141Z,12.23
2018-05-11T05:01:38.045Z,12.21
2018-05-11T05:02:38.008Z,12.20
2018-05-11T05:03:38.003Z,12.21
2018-05-11T05:04:37.976Z,12.23
2018-05-11T05:05:37.974Z,12.24
2018-05-11T05:06:37.953Z,12.34
2018-05-11T05:07:37.942Z,12.37
2018-05-11T05:08:38.022Z,12.31
2018-05-11T05:09:37.928Z,12.37
2018-05-11T05:10:37.919Z,12.28
2018-05-11T05:11:37.904Z,12.41
2018-05-11T05:12:37.893Z,12.39
2018-05-11T05:13:37.876Z,12.38
2018-05-11T05:14:37.941Z,12.42
2018-05-11T05:15:37.853Z,12.52
2018-05-11T05:16:37.831Z,12.50
2018-05-11T05:17:37.828Z,12.53
2018-05-11T05:18:37.820Z,12.56
2018-05-11T05:19:37.796Z,12.47
2018-05-11T05:20:37.839Z,12.56
2018-05-11T05:21:37.789Z,12.56
2018-05-11T05:22:37.769Z,12.62
2018-05-11T05:23:37.760Z,12.62
2018-05-11T05:24:37.745Z,12.62
2018-05-11T05:25:37.734Z,12.67
2018-05-11T05:26:37.741Z,12.71
2018-05-11T05:27:37.709Z,12.70
2018-05-11T05:28:37.699Z,12.74
2018-05-11T05:29:38.114Z,12.60
2018-05-11T05:30:37.664Z,12.49
2018-05-11T05:31:37.655Z,12.38
2018-05-11T05:32:37.662Z,12.34
2018-05-11T05:33:37.646Z,12.28
2018-05-11T05:34:37.620Z,12.20
2018-05-11T05:35:37.612Z,12.20
2018-05-11T05:36:37.734Z,12.10
2018-05-11T05:37:37.592Z,12.05
2018-05-11T05:38:37.581Z,12.14
2018-05-11T05:39:37.564Z,12.02
2018-05-11T05:40:37.563Z,11.95
2018-05-11T05:41:37.543Z,11.98
2018-05-11T05:42:37.576Z,12.10
2018-05-11T05:43:37.518Z,12.07
2018-05-11T05:44:37.513Z,12.10
2018-05-11T05:45:37.487Z,12.04
2018-05-11T05:46:37.629Z,12.09
2018-05-11T05:47:37.472Z,12.16
2018-05-11T05:48:37.470Z,12.19
2018-05-11T05:49:37.446Z,12.24
2018-05-11T05:50:37.436Z,12.32
2018-05-11T05:51:37.418Z,12.17
2018-05-11T05:52:37.443Z,12.23
2018-05-11T05:53:37.402Z,12.29
2018-05-11T05:54:37.395Z,12.19
2018-05-11T05:55:37.370Z,12.24
2018-05-11T05:56:37.577Z,12.17
2018-05-11T05:57:37.486Z,12.19
2018-05-11T05:58:37.332Z,12.21
2018-05-11T05:59:37.331Z,12.19
2018-05-11T06:00:37.317Z,12.29
2018-05-11T06:01:37.306Z,12.24
2018-05-11T06:02:37.289Z,12.29
2018-05-11T06:03:37.348Z,12.37
2018-05-11T06:04:37.355Z,12.34
2018-05-11T06:05:37.257Z,12.34
2018-05-11T06:06:37.249Z,12.38
2018-05-11T06:07:37.236Z,12.34
2018-05-11T06:08:37.216Z,12.34
2018-05-11T06:09:37.230Z,12.39
2018-05-11T06:10:37.200Z,12.42
2018-05-11T06:11:37.230Z,12.50
2018-05-11T06:12:37.174Z,12.54
2018-05-11T06:13:37.195Z,12.72
2018-05-11T06:14:37.151Z,12.75
2018-05-11T06:15:37.225Z,12.79
2018-05-11T06:16:37.155Z,12.96
2018-05-11T06:17:37.171Z,12.96
2018-05-11T06:18:37.095Z,12.93
2018-05-11T06:19:37.093Z,13.10
2018-05-11T06:20:37.084Z,13.10
2018-05-11T06:21:37.140Z,13.19
2018-05-11T06:22:37.060Z,13.14
2018-05-11T06:23:37.057Z,13.05
2018-05-11T06:24:37.034Z,13.12
2018-05-11T06:25:37.027Z,13.08
2018-05-11T06:26:37.019Z,13.03
2018-05-11T06:27:37.024Z,13.04
2018-05-11T06:28:36.988Z,13.07
2018-05-11T06:29:36.991Z,13.11
2018-05-11T06:30:36.966Z,13.25
2018-05-11T06:31:36.958Z,13.20
2018-05-11T06:32:37.084Z,13.32
2018-05-11T06:33:36.929Z,13.45
2018-05-11T06:34:37.016Z,13.51
2018-05-11T06:35:36.912Z,13.51
2018-05-11T06:36:36.897Z,13.62
2018-05-11T06:37:36.891Z,13.59
2018-05-11T06:38:36.917Z,13.67
2018-05-11T06:39:36.869Z,13.82
2018-05-11T06:40:36.897Z,13.87
2018-05-11T06:41:36.849Z,13.85
2018-05-11T06:42:36.830Z,13.78
2018-05-11T06:43:36.845Z,13.79
2018-05-11T06:44:36.825Z,13.73
2018-05-11T06:45:36.808Z,13.79
2018-05-11T06:46:36.796Z,13.84
2018-05-11T06:47:36.793Z,13.78
2018-05-11T06:48:36.987Z,13.81
2018-05-11T06:49:36.765Z,13.97
2018-05-11T06:50:36.754Z,14.02
2018-05-11T06:51:36.753Z,13.97
2018-05-11T06:52:36.733Z,13.97
2018-05-11T06:53:36.721Z,13.96
2018-05-11T06:54:36.716Z,13.96
2018-05-11T06:55:36.702Z,13.97
2018-05-11T06:56:36.692Z,13.97
2018-05-11T06:57:36.671Z,13.99
2018-05-11T06:58:36.675Z,13.92
2018-05-11T06:59:36.695Z,14.00
2018-05-11T07:00:36.651Z,14.03
2018-05-11T07:01:36.703Z,14.10
2018-05-11T07:02:36.621Z,14.17
2018-05-11T07:03:36.651Z,14.07
2018-05-11T07:04:36.623Z,14.03
2018-05-11T07:05:36.599Z,14.02
2018-05-11T07:06:36.592Z,14.17
2018-05-11T07:07:36.583Z,14.12
2018-05-11T07:08:36.577Z,14.07
2018-05-11T07:09:36.605Z,14.09
2018-05-11T07:10:36.559Z,14.12
2018-05-11T07:11:36.539Z,14.06
2018-05-11T07:12:36.535Z,14.10
2018-05-11T07:13:36.526Z,14.18
2018-05-11T07:14:36.523Z,14.17
2018-05-11T07:15:36.537Z,14.25
2018-05-11T07:16:36.485Z,14.47
2018-05-11T07:17:36.480Z,14.37
2018-05-11T07:18:36.471Z,14.52
2018-05-11T07:19:36.465Z,14.51
2018-05-11T07:20:36.474Z,14.58
2018-05-11T07:21:36.450Z,14.65
2018-05-11T07:22:36.435Z,14.70
2018-05-11T07:23:36.418Z,14.68
2018-05-11T07:24:36.401Z,14.68
2018-05-11T07:25:36.449Z,14.64
2018-05-11T07:26:36.407Z,14.61
2018-05-11T07:27:36.383Z,14.61
2018-05-11T07:28:36.804Z,14.54
2018-05-11T07:29:36.373Z,14.60
2018-05-11T07:30:36.355Z,14.68
2018-05-11T07:31:36.335Z,14.62
2018-05-11T07:32:36.336Z,14.64
2018-05-11T07:33:36.330Z,14.69
2018-05-11T07:34:36.317Z,14.70
2018-05-11T07:35:36.320Z,14.64
2018-05-11T07:36:36.297Z,14.60
2018-05-11T07:37:36.308Z,14.61
2018-05-11T07:38:36.279Z,14.58
2018-05-11T07:39:36.296Z,14.51
2018-05-11T07:40:36.255Z,14.54
2018-05-11T07:41:36.239Z,14.61
2018-05-11T07:42:36.240Z,14.62
2018-05-11T07:43:36.218Z,14.60
2018-05-11T07:44:36.273Z,14.60
2018-05-11T07:45:36.206Z,14.64
2018-05-11T07:46:36.191Z,14.60
2018-05-11T07:47:36.198Z,14.70
2018-05-11T07:48:36.174Z,14.72
2018-05-11T07:49:36.182Z,14.72
2018-05-11T07:50:36.184Z,14.64
2018-05-11T07:51:36.160Z,14.65
2018-05-11T07:52:36.141Z,14.72
2018-05-11T07:53:36.123Z,14.72
2018-05-11T07:54:36.121Z,14.75
2018-05-11T07:55:36.165Z,14.78
2018-05-11T07:56:36.106Z,14.84
2018-05-11T07:57:36.091Z,14.86
2018-05-11T07:58:36.091Z,14.92
2018-05-11T07:59:36.062Z,14.86
2018-05-11T08:00:36.065Z,14.84
2018-05-11T08:01:36.061Z,14.89
2018-05-11T08:02:36.045Z,14.89
2018-05-11T08:03:36.028Z,14.92
2018-05-11T08:04:36.022Z,14.94
2018-05-11T08:05:36.017Z,14.94
2018-05-11T08:06:36.034Z,15.02
2018-05-11T08:07:36.022Z,14.99
2018-05-11T08:08:35.999Z,14.96
2018-05-11T08:09:35.980Z,14.98
2018-05-11T08:10:35.969Z,15.01
2018-05-11T08:11:35.963Z,14.96
2018-05-11T08:12:35.957Z,15.07
2018-05-11T08:13:35.948Z,15.09
2018-05-11T08:14:36.037Z,14.95
2018-05-11T08:15:35.915Z,15.01
2018-05-11T08:16:35.912Z,14.94
2018-05-11T08:17:35.906Z,14.96
2018-05-11T08:18:35.931Z,15.11
2018-05-11T08:19:35.894Z,15.14
2018-05-11T08:20:35.873Z,15.13
2018-05-11T08:21:35.868Z,15.21
2018-05-11T08:22:35.893Z,15.09
2018-05-11T08:23:35.850Z,15.27
2018-05-11T08:24:35.840Z,15.28
2018-05-11T08:25:35.829Z,15.21
2018-05-11T08:26:35.854Z,15.19
2018-05-11T08:27:35.848Z,15.27
2018-05-11T08:28:35.801Z,15.31
2018-05-11T08:29:35.796Z,15.28
2018-05-11T08:30:35.788Z,15.32
2018-05-11T08:31:35.778Z,15.38
2018-05-11T08:32:35.803Z,15.36
2018-05-11T08:33:35.764Z,15.34
2018-05-11T08:34:35.758Z,15.39
2018-05-11T08:35:35.739Z,15.35
2018-05-11T08:36:35.739Z,15.44
2018-05-11T08:37:35.879Z,15.49
2018-05-11T08:38:35.712Z,15.47
2018-05-11T08:39:35.707Z,15.44
2018-05-11T08:40:35.692Z,15.47
2018-05-11T08:41:35.693Z,15.54
2018-05-11T08:42:35.669Z,15.57
2018-05-11T08:43:35.741Z,15.49
2018-05-11T08:44:35.657Z,15.59
2018-05-11T08:45:35.654Z,15.54
2018-05-11T08:46:35.641Z,15.57
2018-05-11T08:47:35.640Z,15.57
2018-05-11T08:48:35.639Z,15.53
2018-05-11T08:49:35.691Z,15.51
2018-05-11T08:50:35.604Z,15.39
2018-05-11T08:51:35.609Z,15.51
2018-05-11T08:52:35.580Z,15.53
2018-05-11T08:53:35.583Z,15.54
2018-05-11T08:54:35.571Z,15.59
2018-05-11T08:55:35.569Z,15.64
2018-05-11T08:56:35.554Z,15.75
2018-05-11T08:57:35.564Z,15.72
2018-05-11T08:58:35.551Z,15.80
2018-05-11T08:59:35.535Z,15.90
2018-05-11T09:00:35.696Z,16.01
2018-05-11T09:01:35.547Z,16.08
2018-05-11T09:02:35.509Z,16.14
2018-05-11T09:03:35.510Z,16.12
2018-05-11T09:04:35.490Z,16.14
2018-05-11T09:05:35.484Z,16.15
2018-05-11T09:06:35.843Z,16.09
2018-05-11T09:07:35.462Z,16.11
2018-05-11T09:08:35.498Z,16.11
2018-05-11T09:09:35.461Z,16.07
2018-05-11T09:10:35.445Z,16.09
2018-05-11T09:11:35.431Z,16.00
2018-05-11T09:12:35.444Z,16.08
2018-05-11T09:13:35.429Z,16.05
2018-05-11T09:14:35.411Z,16.07
2018-05-11T09:15:35.407Z,16.09
2018-05-11T09:16:35.397Z,16.12
2018-05-11T09:17:35.415Z,16.09
2018-05-11T09:18:35.379Z,16.12
2018-05-11T09:19:35.377Z,16.04
2018-05-11T09:20:35.372Z,16.08
2018-05-11T09:21:35.356Z,15.96
2018-05-11T09:22:35.362Z,16.02
2018-05-11T09:23:35.368Z,15.96
2018-05-11T09:24:35.338Z,16.01
2018-05-11T09:25:35.327Z,15.96
2018-05-11T09:26:35.776Z,16.04
2018-05-11T09:27:35.316Z,16.11
2018-05-11T09:28:35.298Z,16.11
2018-05-11T09:29:35.287Z,16.15
2018-05-11T09:30:35.281Z,16.11
2018-05-11T09:31:35.282Z,16.17
2018-05-11T09:32:35.275Z,16.11
2018-05-11T09:33:35.266Z,16.14
2018-05-11T09:34:35.248Z,16.14
2018-05-11T09:35:35.278Z,16.07
2018-05-11T09:36:35.271Z,16.12
2018-05-11T09:37:35.223Z,16.11
2018-05-11T09:38:35.235Z,16.14
2018-05-11T09:39:35.244Z,16.17
2018-05-11T09:40:35.206Z,16.24
2018-05-11T09:41:35.229Z,16.30
2018-05-11T09:42:36.162Z,16.20
2018-05-11T09:43:35.178Z,16.17
2018-05-11T09:44:35.174Z,16.08
2018-05-11T09:45:35.208Z,15.93
2018-05-11T09:46:35.243Z,15.90
2018-05-11T09:47:35.148Z,15.75
2018-05-11T09:48:35.298Z,15.78
2018-05-11T09:49:35.257Z,15.86
2018-05-11T09:50:35.161Z,15.83
2018-05-11T09:51:35.118Z,15.89
2018-05-11T09:52:35.110Z,15.94
2018-05-11T09:53:35.128Z,16.12
2018-05-11T09:54:35.096Z,16.11
2018-05-11T09:55:35.093Z,16.21
2018-05-11T09:56:35.107Z,16.28
2018-05-11T09:57:35.069Z,16.31
2018-05-11T09:58:35.069Z,16.35
2018-05-11T09:59:35.071Z,16.41
2018-05-11T10:00:35.059Z,16.41
2018-05-11T10:01:35.084Z,16.49
2018-05-11T10:02:35.222Z,16.49
2018-05-11T10:03:35.025Z,16.27
2018-05-11T10:04:35.021Z,16.30
2018-05-11T10:05:35.024Z,16.24
2018-05-11T10:06:35.015Z,16.38
2018-05-11T10:07:35.037Z,16.45
2018-05-11T10:08:34.995Z,16.49
2018-05-11T10:09:34.986Z,16.56
2018-05-11T10:10:34.987Z,16.66
2018-05-11T10:11:34.972Z,16.71
2018-05-11T10:12:36.700Z,16.86
2018-05-11T10:13:35.259Z,16.97
2018-05-11T10:14:34.961Z,17.26
2018-05-11T10:15:35.346Z,17.37
2018-05-11T10:16:34.955Z,17.62
2018-05-11T10:17:34.952Z,17.66
2018-05-11T10:18:34.930Z,17.46
2018-05-11T10:19:34.955Z,17.59
2018-05-11T10:20:34.944Z,17.49
2018-05-11T10:21:34.931Z,17.58
2018-05-11T10:22:34.920Z,17.62
2018-05-11T10:23:34.917Z,17.55
2018-05-11T10:24:35.225Z,17.58
2018-05-11T10:25:34.929Z,17.46
2018-05-11T10:26:34.904Z,17.56
2018-05-11T10:27:34.905Z,17.77
2018-05-11T10:28:34.900Z,18.07
2018-05-11T10:29:34.901Z,18.27
2018-05-11T10:30:35.213Z,18.51
2018-05-11T10:31:37.702Z,18.70
2018-05-11T10:32:35.695Z,18.91
2018-05-11T10:33:34.877Z,18.92
2018-05-11T10:34:34.932Z,19.10
2018-05-11T10:35:34.942Z,19.19
2018-05-11T10:36:34.885Z,19.37
2018-05-11T10:37:34.875Z,19.47
2018-05-11T10:38:34.888Z,19.50
2018-05-11T10:39:34.888Z,19.54
2018-05-11T10:40:34.874Z,19.48
2018-05-11T10:41:34.867Z,19.51
2018-05-11T10:42:34.869Z,19.58
2018-05-11T10:43:34.865Z,19.47
2018-05-11T10:44:34.856Z,19.36
2018-05-11T10:45:34.856Z,19.41
2018-05-11T10:46:35.270Z,19.32
2018-05-11T10:47:34.852Z,19.23
2018-05-11T10:48:34.891Z,19.39
2018-05-11T10:49:34.850Z,19.25
2018-05-11T10:50:34.840Z,19.16
2018-05-11T10:51:34.843Z,19.10
2018-05-11T10:52:34.880Z,19.13
2018-05-11T10:53:34.837Z,19.11
2018-05-11T10:54:34.863Z,19.10
2018-05-11T10:55:34.828Z,19.08
2018-05-11T10:56:34.831Z,18.92
2018-05-11T10:57:34.832Z,18.94
2018-05-11T10:58:35.026Z,18.75
2018-05-11T10:59:34.813Z,18.78
2018-05-11T11:00:34.954Z,18.70
2018-05-11T11:01:34.800Z,18.67
2018-05-11T11:02:34.796Z,18.72
2018-05-11T11:03:34.794Z,18.70
2018-05-11T11:04:34.784Z,18.75
2018-05-11T11:05:34.784Z,18.66
2018-05-11T11:06:34.809Z,18.66
2018-05-11T11:07:34.783Z,18.66
2018-05-11T11:08:34.769Z,18.67
2018-05-11T11:09:34.753Z,18.67
2018-05-11T11:10:34.758Z,18.67
2018-05-11T11:11:34.746Z,18.55
2018-05-11T11:12:34.830Z,18.57
2018-05-11T11:13:34.748Z,18.58
2018-05-11T11:14:34.806Z,18.48
2018-05-11T11:15:34.735Z,18.39
2018-05-11T11:16:34.731Z,18.44
2018-05-11T11:17:34.723Z,18.42
2018-05-11T11:18:34.721Z,18.36
2018-05-11T11:19:34.718Z,18.37
2018-05-11T11:20:34.702Z,18.35
2018-05-11T11:21:34.700Z,18.32
2018-05-11T11:22:34.747Z,18.17
2018-05-11T11:23:34.702Z,18.18
2018-05-11T11:24:34.688Z,18.12
2018-05-11T11:25:34.675Z,18.18
2018-05-11T11:26:34.666Z,18.39
2018-05-11T11:27:34.740Z,18.70
2018-05-11T11:28:34.662Z,19.02
2018-05-11T11:29:34.654Z,19.18
2018-05-11T11:30:34.654Z,19.23
2018-05-11T11:31:34.650Z,19.22
2018-05-11T11:32:34.645Z,19.28
2018-05-11T11:33:34.639Z,19.26
2018-05-11T11:34:34.718Z,19.25
2018-05-11T11:35:34.766Z,19.25
2018-05-11T11:36:34.627Z,19.36
2018-05-11T11:37:34.627Z,19.56
2018-05-11T11:38:34.619Z,19.55
2018-05-11T11:39:34.606Z,19.62
2018-05-11T11:40:34.605Z,19.71
2018-05-11T11:41:34.683Z,19.86
2018-05-11T11:42:34.605Z,19.98
2018-05-11T11:43:34.626Z,20.20
2018-05-11T11:44:34.629Z,20.39
2018-05-11T11:45:34.604Z,20.38
2018-05-11T11:46:34.597Z,20.21
2018-05-11T11:47:34.617Z,20.05
2018-05-11T11:48:34.582Z,20.03
2018-05-11T11:49:34.593Z,20.01
2018-05-11T11:50:34.572Z,19.95
2018-05-11T11:51:34.576Z,19.92
2018-05-11T11:52:34.580Z,19.95
2018-05-11T11:53:34.569Z,19.76
2018-05-11T11:54:34.575Z,19.78
2018-05-11T11:55:34.560Z,19.68
2018-05-11T11:56:34.734Z,19.63
2018-05-11T11:57:34.587Z,19.44
2018-05-11T11:58:34.589Z,19.31
2018-05-11T11:59:34.554Z,19.28
2018-05-11T12:00:34.554Z,19.14
2018-05-11T12:01:34.585Z,19.02
2018-05-11T12:02:37.683Z,19.04
2018-05-11T12:03:34.628Z,19.07
2018-05-11T12:04:34.528Z,19.11
2018-05-11T12:05:34.536Z,19.06
2018-05-11T12:06:34.530Z,19.04
2018-05-11T12:07:34.542Z,19.08
2018-05-11T12:08:34.667Z,19.02
2018-05-11T12:09:34.512Z,19.08
2018-05-11T12:10:34.934Z,18.95
2018-05-11T12:11:34.507Z,19.02
2018-05-11T12:12:34.496Z,19.04
2018-05-11T12:13:34.664Z,19.11
2018-05-11T12:14:34.492Z,19.11
2018-05-11T12:15:34.483Z,19.07
2018-05-11T12:16:34.470Z,19.22
2018-05-11T12:17:34.482Z,19.16
2018-05-11T12:18:34.471Z,19.18
2018-05-11T12:19:34.624Z,19.13
2018-05-11T12:20:34.458Z,19.11
2018-05-11T12:21:34.447Z,18.99
2018-05-11T12:22:34.494Z,19.10
2018-05-11T12:23:34.528Z,19.04
2018-05-11T12:24:34.428Z,19.11
2018-05-11T12:25:34.427Z,19.08
2018-05-11T12:26:34.433Z,19.00
2018-05-11T12:27:34.451Z,19.13
2018-05-11T12:28:34.409Z,18.99
2018-05-11T12:29:34.420Z,18.99
2018-05-11T12:30:34.407Z,18.87
2018-05-11T12:31:34.403Z,18.78
2018-05-11T12:32:34.414Z,18.75
2018-05-11T12:33:34.404Z,18.76
2018-05-11T12:34:34.402Z,18.76
2018-05-11T12:35:34.385Z,18.69
2018-05-11T12:36:34.370Z,18.69
2018-05-11T12:37:34.369Z,18.70
2018-05-11T12:38:34.366Z,18.54
2018-05-11T12:39:34.382Z,18.44
2018-05-11T12:40:34.444Z,18.37
2018-05-11T12:41:34.343Z,18.36
2018-05-11T12:42:34.339Z,18.33
2018-05-11T12:43:34.327Z,18.30
2018-05-11T12:44:34.329Z,18.44
2018-05-11T12:45:34.386Z,18.58
2018-05-11T12:46:34.320Z,18.70
2018-05-11T12:47:34.717Z,18.81
2018-05-11T12:48:34.294Z,18.94
2018-05-11T12:49:34.342Z,19.02
2018-05-11T12:50:34.285Z,19.10
2018-05-11T12:51:34.333Z,19.26
2018-05-11T12:52:34.292Z,19.43
2018-05-11T12:53:34.808Z,19.44
2018-05-11T12:54:34.277Z,19.48
2018-05-11T12:55:34.261Z,19.50
2018-05-11T12:56:34.263Z,19.58
2018-05-11T12:57:34.297Z,19.62
2018-05-11T12:58:34.344Z,19.63
2018-05-11T12:59:34.236Z,19.76
2018-05-11T13:00:34.236Z,19.62
2018-05-11T13:01:34.233Z,19.78
2018-05-11T13:02:34.225Z,19.74
2018-05-11T13:03:34.525Z,19.76
2018-05-11T13:04:34.219Z,19.81
2018-05-11T13:05:34.275Z,19.91
2018-05-11T13:06:34.201Z,19.73
2018-05-11T13:07:34.202Z,19.68
2018-05-11T13:08:34.198Z,19.66
2018-05-11T13:09:34.332Z,19.66
2018-05-11T13:10:34.193Z,19.44
2018-05-11T13:11:34.180Z,19.43
2018-05-11T13:12:34.259Z,19.58
2018-05-11T13:13:34.179Z,19.28
2018-05-11T13:14:35.419Z,19.08
2018-05-11T13:15:34.168Z,19.00
2018-05-11T13:16:34.160Z,18.99
2018-05-11T13:17:34.776Z,18.99
2018-05-11T13:18:34.154Z,19.00
2018-05-11T13:19:34.143Z,19.06
2018-05-11T13:20:34.567Z,19.04
2018-05-11T13:21:34.133Z,19.13
2018-05-11T13:22:34.129Z,19.18
2018-05-11T13:23:34.120Z,19.10
2018-05-11T13:24:34.205Z,19.18
2018-05-11T13:25:34.195Z,19.11
2018-05-11T13:26:34.176Z,19.11
2018-05-11T13:27:34.089Z,19.13
2018-05-11T13:28:34.089Z,19.06
2018-05-11T13:29:34.090Z,18.98
2018-05-11T13:30:34.245Z,18.98
2018-05-11T13:31:34.083Z,19.04
2018-05-11T13:32:34.221Z,18.94
2018-05-11T13:33:34.058Z,18.85
2018-05-11T13:34:34.054Z,18.73
2018-05-11T13:35:34.288Z,18.82
2018-05-11T13:36:34.042Z,18.76
2018-05-11T13:37:34.053Z,18.66
2018-05-11T13:38:34.042Z,18.69
2018-05-11T13:39:34.024Z,18.65
2018-05-11T13:40:34.028Z,18.73
2018-05-11T13:41:34.009Z,18.70
2018-05-11T13:42:34.013Z,18.69
2018-05-11T13:43:34.145Z,18.67
2018-05-11T13:44:33.991Z,18.69
2018-05-11T13:45:33.991Z,18.47
2018-05-11T13:46:33.988Z,18.50
2018-05-11T13:47:33.972Z,18.45
2018-05-11T13:48:34.164Z,18.37
2018-05-11T13:49:33.998Z,18.35
2018-05-11T13:50:33.960Z,18.35
2018-05-11T13:51:33.956Z,18.29
2018-05-11T13:52:33.947Z,18.37
2018-05-11T13:53:33.957Z,18.39
2018-05-11T13:54:33.967Z,18.41
2018-05-11T13:55:33.922Z,18.52
2018-05-11T13:56:34.010Z,18.63
2018-05-11T13:57:33.922Z,18.69
2018-05-11T13:58:33.936Z,18.75
2018-05-11T13:59:34.053Z,18.94
2018-05-11T14:00:33.905Z,19.08
2018-05-11T14:01:33.890Z,19.21
2018-05-11T14:02:33.897Z,19.19
2018-05-11T14:03:33.983Z,19.22
2018-05-11T14:04:33.897Z,19.26
2018-05-11T14:05:33.884Z,19.36
2018-05-11T14:06:33.871Z,19.39
2018-05-11T14:07:33.858Z,19.22
2018-05-11T14:08:33.848Z,19.28
2018-05-11T14:09:34.600Z,19.19
2018-05-11T14:10:33.892Z,19.21
2018-05-11T14:11:33.843Z,19.14
2018-05-11T14:12:33.981Z,19.08
2018-05-11T14:13:33.952Z,19.19
2018-05-11T14:14:33.817Z,19.08
2018-05-11T14:15:33.811Z,19.06
2018-05-11T14:16:33.808Z,19.06
2018-05-11T14:17:33.796Z,19.04
2018-05-11T14:18:33.805Z,19.10
2018-05-11T14:19:33.820Z,19.07
2018-05-11T14:20:33.779Z,18.99
2018-05-11T14:21:33.832Z,19.14
2018-05-11T14:22:33.775Z,19.11
2018-05-11T14:23:33.763Z,19.07
2018-05-11T14:24:33.761Z,19.07
2018-05-11T14:25:33.749Z,18.98
2018-05-11T14:26:33.758Z,19.08
2018-05-11T14:27:33.775Z,19.07
2018-05-11T14:28:33.735Z,19.13
2018-05-11T14:29:33.847Z,19.16
2018-05-11T14:30:33.749Z,19.25
2018-05-11T14:31:33.733Z,19.29
2018-05-11T14:32:33.746Z,19.44
2018-05-11T14:33:33.844Z,19.41
2018-05-11T14:34:33.705Z,19.47
2018-05-11T14:35:33.704Z,19.55
2018-05-11T14:36:33.698Z,19.56
2018-05-11T14:37:34.430Z,19.47
2018-05-11T14:38:34.442Z,19.43
2018-05-11T14:39:33.989Z,19.31
2018-05-11T14:40:33.669Z,19.41
2018-05-11T14:41:33.661Z,19.33
2018-05-11T14:42:33.664Z,19.44
2018-05-11T14:43:33.661Z,19.40
2018-05-11T14:44:33.659Z,19.25
2018-05-11T14:45:33.641Z,19.19
2018-05-11T14:46:33.636Z,19.08
2018-05-11T14:47:33.630Z,19.10
2018-05-11T14:48:33.616Z,19.14
2018-05-11T14:49:33.651Z,19.28
2018-05-11T14:50:33.614Z,19.46
2018-05-11T14:51:33.598Z,19.66
2018-05-11T14:52:33.598Z,20.06
2018-05-11T14:53:33.728Z,20.26
2018-05-11T14:54:33.592Z,20.32
2018-05-11T14:55:33.585Z,20.42
2018-05-11T14:56:33.573Z,20.61
2018-05-11T14:57:33.574Z,20.82
2018-05-11T14:58:33.578Z,21.01
2018-05-11T14:59:33.716Z,21.35
2018-05-11T15:00:33.567Z,21.54
2018-05-11T15:01:33.562Z,21.71
2018-05-11T15:02:33.568Z,21.83
2018-05-11T15:03:33.551Z,21.69
2018-05-11T15:04:33.560Z,21.50
2018-05-11T15:05:33.561Z,21.50
2018-05-11T15:06:33.558Z,21.37
2018-05-11T15:07:33.545Z,21.25
2018-05-11T15:08:33.547Z,21.16
2018-05-11T15:09:33.568Z,20.95
2018-05-11T15:10:33.558Z,20.99
2018-05-11T15:11:33.536Z,20.97
2018-05-11T15:12:33.549Z,20.80
2018-05-11T15:13:33.529Z,20.89
2018-05-11T15:14:33.522Z,20.92
2018-05-11T15:15:33.650Z,20.88
2018-05-11T15:16:33.515Z,20.91
2018-05-11T15:17:33.514Z,20.94
2018-05-11T15:18:33.513Z,20.99
2018-05-11T15:19:33.532Z,20.97
2018-05-11T15:20:33.501Z,21.01
2018-05-11T15:21:33.879Z,20.95
2018-05-11T15:22:33.489Z,21.04
2018-05-11T15:23:33.508Z,21.03
2018-05-11T15:24:33.497Z,20.94
2018-05-11T15:25:33.497Z,20.95
2018-05-11T15:26:33.481Z,20.99
2018-05-11T15:27:33.485Z,21.03
2018-05-11T15:28:33.464Z,20.91
2018-05-11T15:29:33.472Z,20.88
2018-05-11T15:30:33.463Z,20.88
2018-05-11T15:31:33.462Z,20.69
2018-05-11T15:32:33.489Z,20.64
2018-05-11T15:33:33.453Z,20.88
2018-05-11T15:34:33.442Z,20.72
2018-05-11T15:35:33.453Z,20.73
2018-05-11T15:36:33.444Z,20.70
2018-05-11T15:37:33.885Z,20.72
2018-05-11T15:38:33.436Z,20.77
2018-05-11T15:39:33.426Z,20.74
2018-05-11T15:40:33.494Z,20.73
2018-05-11T15:41:33.420Z,20.69
2018-05-11T15:42:33.408Z,20.67
2018-05-11T15:43:33.433Z,20.69
2018-05-11T15:44:33.408Z,20.67
2018-05-11T15:45:33.404Z,20.69
2018-05-11T15:46:33.394Z,20.69
2018-05-11T15:47:33.395Z,20.84
2018-05-11T15:48:33.511Z,20.82
2018-05-11T15:49:33.390Z,20.88
2018-05-11T15:50:33.379Z,20.94
2018-05-11T15:51:33.378Z,20.98
2018-05-11T15:52:33.372Z,20.94
2018-05-11T15:53:33.366Z,20.98
2018-05-11T15:54:33.357Z,21.07
2018-05-11T15:55:33.397Z,20.98
2018-05-11T15:56:33.355Z,20.85
2018-05-11T15:57:33.357Z,20.70
2018-05-11T15:58:33.365Z,20.69
2018-05-11T15:59:33.387Z,20.58
2018-05-11T16:00:33.328Z,20.58
2018-05-11T16:01:33.483Z,20.48
2018-05-11T16:02:33.328Z,20.57
2018-05-11T16:03:33.329Z,20.52
2018-05-11T16:04:33.310Z,20.61
2018-05-11T16:05:33.341Z,20.62
2018-05-11T16:06:33.419Z,20.66
2018-05-11T16:07:33.298Z,20.64
2018-05-11T16:08:33.299Z,20.62
2018-05-11T16:09:33.292Z,20.59
2018-05-11T16:10:33.881Z,20.59
2018-05-11T16:11:33.270Z,20.51
2018-05-11T16:12:33.322Z,20.62
2018-05-11T16:13:33.271Z,20.55
2018-05-11T16:14:34.548Z,20.59
2018-05-11T16:15:33.258Z,20.72
2018-05-11T16:16:33.266Z,20.67
2018-05-11T16:17:33.298Z,20.59
2018-05-11T16:18:33.260Z,20.66
2018-05-11T16:19:33.258Z,20.62
2018-05-11T16:20:33.331Z,20.66
2018-05-11T16:21:33.857Z,20.70
2018-05-11T16:22:33.264Z,20.69
2018-05-11T16:23:33.241Z,20.70
2018-05-11T16:24:33.217Z,20.69
2018-05-11T16:25:33.284Z,20.70
2018-05-11T16:26:33.210Z,20.58
2018-05-11T16:27:33.193Z,20.61
2018-05-11T16:28:33.205Z,20.52
2018-05-11T16:29:33.196Z,20.58
2018-05-11T16:30:33.196Z,20.61
2018-05-11T16:31:33.241Z,20.67
2018-05-11T16:32:33.262Z,20.62
2018-05-11T16:33:33.891Z,20.66
2018-05-11T16:34:33.920Z,20.58
2018-05-11T16:35:33.193Z,20.59
2018-05-11T16:36:33.875Z,20.62
2018-05-11T16:37:33.191Z,20.50
2018-05-11T16:38:33.151Z,20.48
2018-05-11T16:39:33.142Z,20.50
2018-05-11T16:40:33.184Z,20.48
2018-05-11T16:41:33.139Z,20.35
2018-05-11T16:42:34.499Z,20.43
2018-05-11T16:43:33.132Z,20.47
2018-05-11T16:44:33.365Z,20.29
2018-05-11T16:45:33.194Z,20.23
2018-05-11T16:46:34.458Z,20.26
2018-05-11T16:47:33.123Z,20.24
2018-05-11T16:48:33.117Z,20.11
2018-05-11T16:49:33.107Z,20.16
2018-05-11T16:50:33.260Z,20.21
2018-05-11T16:51:33.101Z,20.17
2018-05-11T16:52:33.082Z,20.18
2018-05-11T16:53:33.123Z,20.08
2018-05-11T16:54:33.225Z,20.11
2018-05-11T16:55:33.073Z,20.11
2018-05-11T16:56:33.108Z,20.10
2018-05-11T16:57:33.049Z,20.03
2018-05-11T16:58:33.061Z,19.99
2018-05-11T16:59:33.034Z,20.03
2018-05-11T17:00:33.051Z,20.01